(°C)
20°
20°
19°
18°
17°
16°
15°
(°C)
16°
16°
15°
14°
14°
13°
12°
СЗ
СЗ
СЗ
СЗ
ССЗ
С
CСИ
(km/h)
11-21
11-21
10-20
10-19
8-17
7-16
5-14
(mm)
0
0
0
0
0
0
0
(%)
1
1
0
0
0
0
0

Издигане на слънцето

/ 31.8°
sun-icon
UV 2
06:47
17:12
Намаляваща полу-луна (232°)
21:56
09:51

METAR за Сан Диего (KSAN)

Час Условия Температура/
Точка на оросяване
Вятър Видимост Времето Облаци Налягане Промяна Сурови
VFR 20°C / 1.1°C 270º 9kt >10km - Few Clouds 8000ft 1015 - KSAN 222051Z 27009KT 10SM FEW080 20/01 A2999 RMK AO2 SLP155 T02000011 58014
VFR 20°C / 0.6°C 250º 5kt >10km - Few Clouds 8000ft 1016 - KSAN 221951Z 25005KT 10SM FEW080 20/01 A3001 RMK AO2 SLP161 T02000006
VFR 20°C / 0°C variable 0kt >10km - Clear 1016 - KSAN 221851Z 00000KT 10SM CLR 20/00 A3003 RMK AO2 SLP167 T02000000
VFR 17.8°C / 3.3°C variable 0kt >10km - Few Clouds 8000ft
Few Clouds 20000ft
1017 - KSAN 221751Z 00000KT 10SM FEW080 FEW200 18/03 A3003 RMK AO2 SLP170 T01780033 10189 20078 51017
VFR 14.4°C / 3.3°C variable 0kt >10km - Clear 1016 - KSAN 221651Z 00000KT 10SM CLR 14/03 A3002 RMK AO2 SLP166 T01440033
VFR 10°C / 6.1°C 10º 3kt >10km - Few Clouds 8000ft 1016 - KSAN 221551Z 01003KT 10SM FEW080 10/06 A3001 RMK AO2 SLP161 T01000061
VFR 8.9°C / 5°C variable 0kt >10km - Few Clouds 8000ft 1015 - KSAN 221451Z 00000KT 10SM FEW080 09/05 A2998 RMK AO2 SLP153 T00890050 53008
VFR 8.3°C / 6.7°C variable 0kt >10km - Few Clouds 8000ft 1014 - KSAN 221351Z 00000KT 10SM FEW080 08/07 A2997 RMK AO2 SLP147 T00830067
VFR 8.9°C / 6.7°C variable 0kt >10km - Few Clouds 8000ft 1014 - KSAN 221251Z 00000KT 10SM FEW080 09/07 A2995 RMK AO2 SLP142 T00890067
VFR 10°C / 8.9°C variable 0kt >10km - Clear 1014 - KSAN 221151Z 00000KT 10SM CLR 10/09 A2996 RMK AO2 SLP145 T01000089 10117 20094 58002
VFR 10°C / 8.3°C 270º 3kt >10km - Few Clouds 11000ft 1014 - KSAN 221051Z 27003KT 10SM FEW110 10/08 A2997 RMK AO2 SLP147 T01000083
VFR 10°C / 8.9°C 350º 3kt >10km - Few Clouds 11000ft 1014 - KSAN 220951Z 35003KT 9SM FEW110 10/09 A2997 RMK AO2 SLP148 T01000089
VFR 10°C / 9.4°C variable 0kt >10km - Few Clouds 11000ft 1014 - KSAN 220851Z 00000KT 7SM FEW110 10/09 A2997 RMK AO2 SLP147 T01000094 58001
VFR 11.1°C / 10.6°C variable 0kt >10km - Few Clouds 11000ft 1015 - KSAN 220751Z 00000KT 8SM FEW110 11/11 A2998 RMK AO2 SLP150 T01110106 401670072
VFR 11.1°C / 10.6°C 360º 4kt >10km - Few Clouds 11000ft 1015 - KSAN 220651Z 36004KT 7SM FEW110 11/11 A2997 RMK AO2 SLP150 T01110106
VFR 11.7°C / 10.6°C variable 0kt >10km - Few Clouds 11000ft 1014 - KSAN 220551Z 00000KT 7SM FEW110 12/11 A2997 RMK AO2 SLP148 T01170106 10156 20117 50002
VFR 12.8°C / 11.1°C variable 0kt >10km - Few Clouds 1500ft
Few Clouds 11000ft
1014 - KSAN 220451Z 00000KT 10SM FEW015 FEW110 13/11 A2997 RMK AO2 SLP149 T01280111
VFR 12.8°C / 11.1°C 40º 3kt >10km - Few Clouds 1500ft
Scattered Clouds 11000ft
1014 - KSAN 220351Z 04003KT 10SM FEW015 SCT110 13/11 A2997 RMK AO2 SLP149 T01280111
VFR 13.3°C / 11.1°C variable 0kt >10km - Scattered Clouds 1500ft
Broken Clouds 11000ft
1014 - KSAN 220251Z 00000KT 10SM SCT015 BKN110 13/11 A2997 RMK AO2 SLP146 T01330111 50006
VFR 13.9°C / 11.1°C 300º 4kt >10km - Scattered Clouds 1600ft
Broken Clouds 8000ft
1014 - KSAN 220151Z 30004KT 10SM SCT016 BKN080 14/11 A2997 RMK AO2 SLP147 T01390111
MVFR 15°C / 11.1°C 310º 4kt >10km - Broken Clouds 1600ft 1014 - KSAN 220051Z 31004KT 10SM BKN016 15/11 A2995 RMK AO2 SLP142 BKN V SCT T01500111
MVFR 15°C / 11.1°C variable 0kt >10km - Broken Clouds 1600ft - KSAN 220031Z 00000KT 10SM BKN016 15/11 A2995 RMK AO2 T01500111
VFR 15.6°C / 11.1°C 230º 4kt >10km - Scattered Clouds 1700ft 1014 - KSAN 212351Z 23004KT 10SM SCT017 16/11 A2995 RMK AO2 SLP140 T01560111 10167 20156 56007
VFR 16°C / 11°C 250º 5kt >10km - Scattered Clouds 1700ft - KSAN 212345Z 25005KT 10SM SCT017 16/11 A2995 RMK AO2

VFR

20°C / 1.1°C

[Още]
Вятър 270º 9kt
Видимост >10km
Времето -
Облаци Few Clouds 8000ft
Налягане 1015
Промяна -
Сурови KSAN 222051Z 27009KT 10SM FEW080 20/01 A2999 RMK AO2 SLP155 T02000011 58014

VFR

20°C / 0.6°C

[Още]
Вятър 250º 5kt
Видимост >10km
Времето -
Облаци Few Clouds 8000ft
Налягане 1016
Промяна -
Сурови KSAN 221951Z 25005KT 10SM FEW080 20/01 A3001 RMK AO2 SLP161 T02000006

VFR

20°C / 0°C

[Още]
Вятър variable 0kt
Видимост >10km
Времето -
Облаци Clear
Налягане 1016
Промяна -
Сурови KSAN 221851Z 00000KT 10SM CLR 20/00 A3003 RMK AO2 SLP167 T02000000

VFR

17.8°C / 3.3°C

[Още]
Вятър variable 0kt
Видимост >10km
Времето -
Облаци Few Clouds 8000ft
Few Clouds 20000ft
Налягане 1017
Промяна -
Сурови KSAN 221751Z 00000KT 10SM FEW080 FEW200 18/03 A3003 RMK AO2 SLP170 T01780033 10189 20078 51017

VFR

14.4°C / 3.3°C

[Още]
Вятър variable 0kt
Видимост >10km
Времето -
Облаци Clear
Налягане 1016
Промяна -
Сурови KSAN 221651Z 00000KT 10SM CLR 14/03 A3002 RMK AO2 SLP166 T01440033

VFR

10°C / 6.1°C

[Още]
Вятър 10º 3kt
Видимост >10km
Времето -
Облаци Few Clouds 8000ft
Налягане 1016
Промяна -
Сурови KSAN 221551Z 01003KT 10SM FEW080 10/06 A3001 RMK AO2 SLP161 T01000061

VFR

8.9°C / 5°C

[Още]
Вятър variable 0kt
Видимост >10km
Времето -
Облаци Few Clouds 8000ft
Налягане 1015
Промяна -
Сурови KSAN 221451Z 00000KT 10SM FEW080 09/05 A2998 RMK AO2 SLP153 T00890050 53008

VFR

8.3°C / 6.7°C

[Още]
Вятър variable 0kt
Видимост >10km
Времето -
Облаци Few Clouds 8000ft
Налягане 1014
Промяна -
Сурови KSAN 221351Z 00000KT 10SM FEW080 08/07 A2997 RMK AO2 SLP147 T00830067

VFR

8.9°C / 6.7°C

[Още]
Вятър variable 0kt
Видимост >10km
Времето -
Облаци Few Clouds 8000ft
Налягане 1014
Промяна -
Сурови KSAN 221251Z 00000KT 10SM FEW080 09/07 A2995 RMK AO2 SLP142 T00890067

VFR

10°C / 8.9°C

[Още]
Вятър variable 0kt
Видимост >10km
Времето -
Облаци Clear
Налягане 1014
Промяна -
Сурови KSAN 221151Z 00000KT 10SM CLR 10/09 A2996 RMK AO2 SLP145 T01000089 10117 20094 58002

VFR

10°C / 8.3°C

[Още]
Вятър 270º 3kt
Видимост >10km
Времето -
Облаци Few Clouds 11000ft
Налягане 1014
Промяна -
Сурови KSAN 221051Z 27003KT 10SM FEW110 10/08 A2997 RMK AO2 SLP147 T01000083

VFR

10°C / 8.9°C

[Още]
Вятър 350º 3kt
Видимост >10km
Времето -
Облаци Few Clouds 11000ft
Налягане 1014
Промяна -
Сурови KSAN 220951Z 35003KT 9SM FEW110 10/09 A2997 RMK AO2 SLP148 T01000089

VFR

10°C / 9.4°C

[Още]
Вятър variable 0kt
Видимост >10km
Времето -
Облаци Few Clouds 11000ft
Налягане 1014
Промяна -
Сурови KSAN 220851Z 00000KT 7SM FEW110 10/09 A2997 RMK AO2 SLP147 T01000094 58001

VFR

11.1°C / 10.6°C

[Още]
Вятър variable 0kt
Видимост >10km
Времето -
Облаци Few Clouds 11000ft
Налягане 1015
Промяна -
Сурови KSAN 220751Z 00000KT 8SM FEW110 11/11 A2998 RMK AO2 SLP150 T01110106 401670072

VFR

11.1°C / 10.6°C

[Още]
Вятър 360º 4kt
Видимост >10km
Времето -
Облаци Few Clouds 11000ft
Налягане 1015
Промяна -
Сурови KSAN 220651Z 36004KT 7SM FEW110 11/11 A2997 RMK AO2 SLP150 T01110106

VFR

11.7°C / 10.6°C

[Още]
Вятър variable 0kt
Видимост >10km
Времето -
Облаци Few Clouds 11000ft
Налягане 1014
Промяна -
Сурови KSAN 220551Z 00000KT 7SM FEW110 12/11 A2997 RMK AO2 SLP148 T01170106 10156 20117 50002

VFR

12.8°C / 11.1°C

[Още]
Вятър variable 0kt
Видимост >10km
Времето -
Облаци Few Clouds 1500ft
Few Clouds 11000ft
Налягане 1014
Промяна -
Сурови KSAN 220451Z 00000KT 10SM FEW015 FEW110 13/11 A2997 RMK AO2 SLP149 T01280111

VFR

12.8°C / 11.1°C

[Още]
Вятър 40º 3kt
Видимост >10km
Времето -
Облаци Few Clouds 1500ft
Scattered Clouds 11000ft
Налягане 1014
Промяна -
Сурови KSAN 220351Z 04003KT 10SM FEW015 SCT110 13/11 A2997 RMK AO2 SLP149 T01280111

VFR

13.3°C / 11.1°C

[Още]
Вятър variable 0kt
Видимост >10km
Времето -
Облаци Scattered Clouds 1500ft
Broken Clouds 11000ft
Налягане 1014
Промяна -
Сурови KSAN 220251Z 00000KT 10SM SCT015 BKN110 13/11 A2997 RMK AO2 SLP146 T01330111 50006

VFR

13.9°C / 11.1°C

[Още]
Вятър 300º 4kt
Видимост >10km
Времето -
Облаци Scattered Clouds 1600ft
Broken Clouds 8000ft
Налягане 1014
Промяна -
Сурови KSAN 220151Z 30004KT 10SM SCT016 BKN080 14/11 A2997 RMK AO2 SLP147 T01390111

MVFR

15°C / 11.1°C

[Още]
Вятър 310º 4kt
Видимост >10km
Времето -
Облаци Broken Clouds 1600ft
Налягане 1014
Промяна -
Сурови KSAN 220051Z 31004KT 10SM BKN016 15/11 A2995 RMK AO2 SLP142 BKN V SCT T01500111

MVFR

15°C / 11.1°C

[Още]
Вятър variable 0kt
Видимост >10km
Времето -
Облаци Broken Clouds 1600ft
Налягане
Промяна -
Сурови KSAN 220031Z 00000KT 10SM BKN016 15/11 A2995 RMK AO2 T01500111

VFR

15.6°C / 11.1°C

[Още]
Вятър 230º 4kt
Видимост >10km
Времето -
Облаци Scattered Clouds 1700ft
Налягане 1014
Промяна -
Сурови KSAN 212351Z 23004KT 10SM SCT017 16/11 A2995 RMK AO2 SLP140 T01560111 10167 20156 56007

VFR

16°C / 11°C

[Още]
Вятър 250º 5kt
Видимост >10km
Времето -
Облаци Scattered Clouds 1700ft
Налягане
Промяна -
Сурови KSAN 212345Z 25005KT 10SM SCT017 16/11 A2995 RMK AO2

TAF за Сан Диего (KSAN)

From till


From till Wind 310º 8kt. Visibility 10km or more. Scattered Clouds 8000ft.
From till Wind 80º 4kt. Visibility 10km or more. Few Clouds 8000ft.
From till Wind 300º 8kt. Visibility 10km or more. Sky Clear.

Сурови: KSAN 222050Z 2221/2324 31008KT P6SM SCT080 FM230100 08004KT P6SM FEW080 FM232000 30008KT P6SM SKC

Радар и валежи в момента за Сан Диего

Ситен дъжд
Лек
Умерен
Тежък
Много тежък
Аве

Маркерът за локация обозначава Сан Диего. Анимацията показва Радара за валежи за последния час, както и прогноза за 1h. Дъждът или лекият сняг може да са невидими за радара. Интензивността на валежите е обозначена с цветни кодове, вариращи от светлосиньо до оранжево.

Актуални сателитни изображения за Сан Диего, САЩ

Маркерът за локация е поставен върху Сан Диего. [Още]

Сателитното изображение в реално време съчетава видимата светлина през деня с инфрачервеното лъчение през нощта. През нощта изображението не е тъмно, тъй като инфрачервеното лъчение може да открива температурни разлики. За съжаление ниските облаци и мъглата са трудни за разграничаване от температурите на земята и затова могат да бъдат почти невидими през нощта. Сателитните изображения на Meteosat за Европа се актуализират в реално време на всеки 5 минути. Изображенията GOES-16/GOES-17 (Северна и Южна Америка) и Химавари (Азия) се актуализират на всеки 10 минути.